sensor_id;sensor_type;location;lat;lon;timestamp;pressure;altitude;pressure_sealevel;temperature;humidity
48553;BME280;34335;51.566;6.994;2023-04-21T00:01:00;100885.88;;;7.76;100.00
48553;BME280;34335;51.566;6.994;2023-04-21T00:03:26;100886.72;;;7.74;100.00
48553;BME280;34335;51.566;6.994;2023-04-21T00:05:54;100884.16;;;7.77;100.00
48553;BME280;34335;51.566;6.994;2023-04-21T00:08:20;100885.84;;;7.73;100.00
48553;BME280;34335;51.566;6.994;2023-04-21T00:10:46;100884.91;;;7.68;100.00
48553;BME280;34335;51.566;6.994;2023-04-21T00:13:11;100886.69;;;7.72;100.00
48553;BME280;34335;51.566;6.994;2023-04-21T00:15:37;100887.16;;;7.45;100.00
48553;BME280;34335;51.566;6.994;2023-04-21T00:18:02;100876.88;;;7.48;100.00
48553;BME280;34335;51.566;6.994;2023-04-21T00:20:29;100875.97;;;7.47;100.00
48553;BME280;34335;51.566;6.994;2023-04-21T00:22:55;100872.69;;;7.58;100.00
48553;BME280;34335;51.566;6.994;2023-04-21T00:25:21;100870.09;;;7.58;100.00
48553;BME280;34335;51.566;6.994;2023-04-21T00:27:47;100859.91;;;7.70;100.00
48553;BME280;34335;51.566;6.994;2023-04-21T00:30:13;100863.41;;;7.74;100.00
48553;BME280;34335;51.566;6.994;2023-04-21T00:32:38;100863.47;;;7.77;100.00
48553;BME280;34335;51.566;6.994;2023-04-21T00:35:04;100866.09;;;7.82;100.00
48553;BME280;34335;51.566;6.994;2023-04-21T00:37:29;100856.47;;;7.71;100.00
48553;BME280;34335;51.566;6.994;2023-04-21T00:39:55;100856.53;;;7.76;100.00
48553;BME280;34335;51.566;6.994;2023-04-21T00:42:21;100852.25;;;7.79;100.00
48553;BME280;34335;51.566;6.994;2023-04-21T00:44:46;100852.19;;;7.73;100.00
48553;BME280;34335;51.566;6.994;2023-04-21T00:47:11;100846.13;;;7.71;100.00
48553;BME280;34335;51.566;6.994;2023-04-21T00:49:37;100842.75;;;7.77;100.00
48553;BME280;34335;51.566;6.994;2023-04-21T00:52:05;100842.75;;;7.78;100.00
48553;BME280;34335;51.566;6.994;2023-04-21T00:54:31;100830.78;;;7.87;100.00
48553;BME280;34335;51.566;6.994;2023-04-21T00:56:59;100838.38;;;7.74;100.00
48553;BME280;34335;51.566;6.994;2023-04-21T00:59:25;100840.13;;;7.75;100.00
48553;BME280;34335;51.566;6.994;2023-04-21T01:01:51;100847.81;;;7.68;100.00
48553;BME280;34335;51.566;6.994;2023-04-21T01:04:17;100849.66;;;7.78;100.00
48553;BME280;34335;51.566;6.994;2023-04-21T01:06:42;100841.00;;;7.77;100.00
48553;BME280;34335;51.566;6.994;2023-04-21T01:09:08;100848.72;;;7.74;100.00
48553;BME280;34335;51.566;6.994;2023-04-21T01:11:34;100848.78;;;7.77;100.00
48553;BME280;34335;51.566;6.994;2023-04-21T01:13:59;100845.34;;;7.78;100.00
48553;BME280;34335;51.566;6.994;2023-04-21T01:16:25;100847.94;;;7.77;100.00
48553;BME280;34335;51.566;6.994;2023-04-21T01:18:51;100841.91;;;7.78;100.00
48553;BME280;34335;51.566;6.994;2023-04-21T01:21:18;100840.13;;;7.75;100.00
48553;BME280;34335;51.566;6.994;2023-04-21T01:23:44;100846.19;;;7.76;100.00
48553;BME280;34335;51.566;6.994;2023-04-21T01:26:09;100836.69;;;7.76;100.00
48553;BME280;34335;51.566;6.994;2023-04-21T01:28:35;100835.84;;;7.77;100.00
48553;BME280;34335;51.566;6.994;2023-04-21T01:31:01;100830.66;;;7.76;100.00
48553;BME280;34335;51.566;6.994;2023-04-21T01:33:26;100833.19;;;7.74;100.00
48553;BME280;34335;51.566;6.994;2023-04-21T01:35:52;100825.44;;;7.74;100.00
48553;BME280;34335;51.566;6.994;2023-04-21T01:38:18;100819.44;;;7.78;100.00
48553;BME280;34335;51.566;6.994;2023-04-21T01:40:44;100815.91;;;7.70;100.00
48553;BME280;34335;51.566;6.994;2023-04-21T01:43:12;100810.72;;;7.69;100.00
48553;BME280;34335;51.566;6.994;2023-04-21T01:45:37;100806.34;;;7.66;100.00
48553;BME280;34335;51.566;6.994;2023-04-21T01:48:03;100822.72;;;7.65;100.00
48553;BME280;34335;51.566;6.994;2023-04-21T01:50:28;100823.53;;;7.59;100.00
48553;BME280;34335;51.566;6.994;2023-04-21T01:52:54;100825.22;;;7.57;100.00
48553;BME280;34335;51.566;6.994;2023-04-21T01:55:19;100819.28;;;7.64;100.00
48553;BME280;34335;51.566;6.994;2023-04-21T01:57:44;100824.44;;;7.63;100.00
48553;BME280;34335;51.566;6.994;2023-04-21T02:00:10;100802.03;;;7.65;100.00
48553;BME280;34335;51.566;6.994;2023-04-21T02:02:36;100796.81;;;7.62;100.00
48553;BME280;34335;51.566;6.994;2023-04-21T02:05:01;100802.91;;;7.67;100.00
48553;BME280;34335;51.566;6.994;2023-04-21T02:07:26;100804.53;;;7.60;100.00
48553;BME280;34335;51.566;6.994;2023-04-21T02:09:52;100802.00;;;7.62;100.00
48553;BME280;34335;51.566;6.994;2023-04-21T02:12:17;100800.19;;;7.55;100.00
48553;BME280;34335;51.566;6.994;2023-04-21T02:14:42;100808.03;;;7.61;100.00
48553;BME280;34335;51.566;6.994;2023-04-21T02:17:08;100809.66;;;7.56;100.00
48553;BME280;34335;51.566;6.994;2023-04-21T02:19:33;100801.06;;;7.57;100.00
48553;BME280;34335;51.566;6.994;2023-04-21T02:21:58;100802.78;;;7.55;100.00
48553;BME280;34335;51.566;6.994;2023-04-21T02:24:24;100799.38;;;7.60;100.00
48553;BME280;34335;51.566;6.994;2023-04-21T02:26:49;100800.22;;;7.58;100.00
48553;BME280;34335;51.566;6.994;2023-04-21T02:29:14;100797.63;;;7.56;100.00
48553;BME280;34335;51.566;6.994;2023-04-21T02:31:40;100799.41;;;7.62;100.00
48553;BME280;34335;51.566;6.994;2023-04-21T02:34:06;100796.66;;;7.51;100.00
48553;BME280;34335;51.566;6.994;2023-04-21T02:36:31;100794.91;;;7.47;100.00
48553;BME280;34335;51.566;6.994;2023-04-21T02:38:56;100788.94;;;7.53;100.00
48553;BME280;34335;51.566;6.994;2023-04-21T02:41:22;100779.44;;;7.52;100.00
48553;BME280;34335;51.566;6.994;2023-04-21T02:43:47;100786.41;;;7.57;100.00
48553;BME280;34335;51.566;6.994;2023-04-21T02:46:12;100786.25;;;7.45;100.00
48553;BME280;34335;51.566;6.994;2023-04-21T02:48:38;100788.84;;;7.45;100.00
48553;BME280;34335;51.566;6.994;2023-04-21T02:51:03;100778.50;;;7.46;100.00
48553;BME280;34335;51.566;6.994;2023-04-21T02:53:28;100787.94;;;7.43;100.00
48553;BME280;34335;51.566;6.994;2023-04-21T02:55:54;100787.09;;;7.44;100.00
48553;BME280;34335;51.566;6.994;2023-04-21T02:58:20;100786.19;;;7.39;100.00
48553;BME280;34335;51.566;6.994;2023-04-21T03:00:46;100785.22;;;7.30;100.00
48553;BME280;34335;51.566;6.994;2023-04-21T03:03:11;100782.88;;;7.51;100.00
48553;BME280;34335;51.566;6.994;2023-04-21T03:05:36;100795.81;;;7.51;100.00
48553;BME280;34335;51.566;6.994;2023-04-21T03:08:02;100786.28;;;7.48;100.00
48553;BME280;34335;51.566;6.994;2023-04-21T03:10:27;100790.75;;;7.61;100.00
48553;BME280;34335;51.566;6.994;2023-04-21T03:12:52;100798.69;;;7.72;100.00
48553;BME280;34335;51.566;6.994;2023-04-21T03:15:18;100786.34;;;7.53;100.00
48553;BME280;34335;51.566;6.994;2023-04-21T03:17:43;100795.94;;;7.61;100.00
48553;BME280;34335;51.566;6.994;2023-04-21T03:20:09;100788.88;;;7.49;100.00
48553;BME280;34335;51.566;6.994;2023-04-21T03:22:34;100790.59;;;7.47;100.00
48553;BME280;34335;51.566;6.994;2023-04-21T03:25:00;100799.34;;;7.57;100.00
48553;BME280;34335;51.566;6.994;2023-04-21T03:27:25;100812.25;;;7.56;100.00
48553;BME280;34335;51.566;6.994;2023-04-21T03:29:51;100811.41;;;7.55;100.00
48553;BME280;34335;51.566;6.994;2023-04-21T03:32:34;100801.13;;;7.61;100.00
48553;BME280;34335;51.566;6.994;2023-04-21T03:35:00;100796.09;;;7.72;100.00
48553;BME280;34335;51.566;6.994;2023-04-21T03:37:25;100794.31;;;7.70;100.00
48553;BME280;34335;51.566;6.994;2023-04-21T03:39:50;100792.59;;;7.69;100.00
48553;BME280;34335;51.566;6.994;2023-04-21T03:42:16;100795.13;;;7.64;100.00
48553;BME280;34335;51.566;6.994;2023-04-21T03:44:41;100797.84;;;7.73;100.00
48553;BME280;34335;51.566;6.994;2023-04-21T03:47:06;100798.59;;;7.66;100.00
48553;BME280;34335;51.566;6.994;2023-04-21T03:49:35;100790.13;;;7.78;100.00
48553;BME280;34335;51.566;6.994;2023-04-21T03:52:00;100797.94;;;7.83;100.00
48553;BME280;34335;51.566;6.994;2023-04-21T03:54:25;100800.53;;;7.86;100.00
48553;BME280;34335;51.566;6.994;2023-04-21T03:56:51;100786.53;;;7.70;100.00
48553;BME280;34335;51.566;6.994;2023-04-21T03:59:16;100794.41;;;7.77;100.00
48553;BME280;34335;51.566;6.994;2023-04-21T04:01:42;100791.06;;;7.86;100.00
48553;BME280;34335;51.566;6.994;2023-04-21T04:04:07;100787.59;;;7.83;100.00
48553;BME280;34335;51.566;6.994;2023-04-21T04:06:32;100789.22;;;7.77;100.00
48553;BME280;34335;51.566;6.994;2023-04-21T04:08:59;100787.47;;;7.75;100.00
48553;BME280;34335;51.566;6.994;2023-04-21T04:11:28;100792.72;;;7.78;100.00
48553;BME280;34335;51.566;6.994;2023-04-21T04:13:54;100786.66;;;7.77;100.00
48553;BME280;34335;51.566;6.994;2023-04-21T04:16:19;100788.44;;;7.85;100.00
48553;BME280;34335;51.566;6.994;2023-04-21T04:18:44;100780.66;;;7.82;100.00
48553;BME280;34335;51.566;6.994;2023-04-21T04:21:10;100782.25;;;7.70;100.00
48553;BME280;34335;51.566;6.994;2023-04-21T04:23:35;100784.78;;;7.67;100.00
48553;BME280;34335;51.566;6.994;2023-04-21T04:26:00;100785.69;;;7.69;100.00
48553;BME280;34335;51.566;6.994;2023-04-21T04:28:28;100779.72;;;7.73;100.00
48553;BME280;34335;51.566;6.994;2023-04-21T04:30:54;100779.66;;;7.72;100.00
48553;BME280;34335;51.566;6.994;2023-04-21T04:33:20;100786.59;;;7.71;100.00
48553;BME280;34335;51.566;6.994;2023-04-21T04:35:45;100796.00;;;7.64;100.00
48553;BME280;34335;51.566;6.994;2023-04-21T04:38:11;100784.88;;;7.73;100.00
48553;BME280;34335;51.566;6.994;2023-04-21T04:40:38;100789.19;;;7.74;100.00
48553;BME280;34335;51.566;6.994;2023-04-21T04:43:04;100785.00;;;7.83;100.00
48553;BME280;34335;51.566;6.994;2023-04-21T04:45:30;100788.34;;;7.74;100.00
48553;BME280;34335;51.566;6.994;2023-04-21T04:47:57;100781.63;;;7.91;100.00
48553;BME280;34335;51.566;6.994;2023-04-21T04:50:23;100794.31;;;7.68;100.00
48553;BME280;34335;51.566;6.994;2023-04-21T04:52:48;100790.00;;;7.69;100.00
48553;BME280;34335;51.566;6.994;2023-04-21T04:55:14;100790.88;;;7.69;100.00
48553;BME280;34335;51.566;6.994;2023-04-21T04:57:39;100802.06;;;7.68;100.00
48553;BME280;34335;51.566;6.994;2023-04-21T05:00:06;100786.53;;;7.70;100.00
48553;BME280;34335;51.566;6.994;2023-04-21T05:02:35;100788.22;;;7.63;100.00
48553;BME280;34335;51.566;6.994;2023-04-21T05:05:01;100799.47;;;7.67;100.00
48553;BME280;34335;51.566;6.994;2023-04-21T05:07:26;100798.56;;;7.64;100.00
48553;BME280;34335;51.566;6.994;2023-04-21T05:09:51;100800.31;;;7.67;100.00
48553;BME280;34335;51.566;6.994;2023-04-21T05:12:16;100795.13;;;7.64;100.00
48553;BME280;34335;51.566;6.994;2023-04-21T05:14:42;100796.84;;;7.65;100.00
48553;BME280;34335;51.566;6.994;2023-04-21T05:17:07;100805.44;;;7.61;100.00
48553;BME280;34335;51.566;6.994;2023-04-21T05:19:34;100793.34;;;7.60;100.00
48553;BME280;34335;51.566;6.994;2023-04-21T05:22:00;100795.25;;;7.73;100.00
48553;BME280;34335;51.566;6.994;2023-04-21T05:24:26;100784.66;;;7.56;100.00
48553;BME280;34335;51.566;6.994;2023-04-21T05:26:51;100786.59;;;7.71;100.00
48553;BME280;34335;51.566;6.994;2023-04-21T05:29:16;100789.06;;;7.65;100.00
48553;BME280;34335;51.566;6.994;2023-04-21T05:31:42;100794.97;;;7.53;100.00
48553;BME280;34335;51.566;6.994;2023-04-21T05:34:07;100784.72;;;7.62;100.00
48553;BME280;34335;51.566;6.994;2023-04-21T05:36:32;100782.31;;;7.75;100.00
48553;BME280;34335;51.566;6.994;2023-04-21T05:38:58;100792.66;;;7.75;100.00
48553;BME280;34335;51.566;6.994;2023-04-21T05:41:23;100800.53;;;7.84;100.00
48553;BME280;34335;51.566;6.994;2023-04-21T05:43:48;100804.03;;;7.88;100.00
48553;BME280;34335;51.566;6.994;2023-04-21T05:46:14;100810.16;;;7.93;100.00
48553;BME280;34335;51.566;6.994;2023-04-21T05:48:39;100801.66;;;8.06;100.00
48553;BME280;34335;51.566;6.994;2023-04-21T05:51:12;100812.00;;;8.06;100.00
48553;BME280;34335;51.566;6.994;2023-04-21T05:53:38;100805.06;;;8.02;100.00
48553;BME280;34335;51.566;6.994;2023-04-21T05:56:04;100812.09;;;8.16;100.00
48553;BME280;34335;51.566;6.994;2023-04-21T05:58:30;100801.78;;;8.20;100.00
48553;BME280;34335;51.566;6.994;2023-04-21T06:00:55;100809.41;;;8.06;100.00
48553;BME280;34335;51.566;6.994;2023-04-21T06:03:20;100805.97;;;8.09;100.00
48553;BME280;34335;51.566;6.994;2023-04-21T06:05:45;100805.13;;;8.07;100.00
48553;BME280;34335;51.566;6.994;2023-04-21T06:08:11;100794.06;;;8.25;100.00
48553;BME280;34335;51.566;6.994;2023-04-21T06:10:37;100797.41;;;8.15;100.00
48553;BME280;34335;51.566;6.994;2023-04-21T06:13:02;100797.63;;;8.36;100.00
48553;BME280;34335;51.566;6.994;2023-04-21T06:15:27;100804.56;;;8.37;100.00
48553;BME280;34335;51.566;6.994;2023-04-21T06:17:53;100793.31;;;8.37;100.00
48553;BME280;34335;51.566;6.994;2023-04-21T06:20:19;100808.75;;;8.27;100.00
48553;BME280;34335;51.566;6.994;2023-04-21T06:22:44;100806.03;;;8.14;100.00
48553;BME280;34335;51.566;6.994;2023-04-21T06:25:10;100802.97;;;8.52;100.00
48553;BME280;34335;51.566;6.994;2023-04-21T06:27:35;100794.16;;;8.34;100.00
48553;BME280;34335;51.566;6.994;2023-04-21T06:30:00;100801.03;;;8.29;100.00
48553;BME280;34335;51.566;6.994;2023-04-21T06:32:25;100791.88;;;8.65;100.00
48553;BME280;34335;51.566;6.994;2023-04-21T06:34:51;100785.94;;;8.79;100.00
48553;BME280;34335;51.566;6.994;2023-04-21T06:37:16;100783.38;;;8.83;100.00
48553;BME280;34335;51.566;6.994;2023-04-21T06:39:42;100789.03;;;8.40;100.00
48553;BME280;34335;51.566;6.994;2023-04-21T06:42:07;100791.88;;;8.67;100.00
48553;BME280;34335;51.566;6.994;2023-04-21T06:44:32;100790.88;;;8.48;100.00
48553;BME280;34335;51.566;6.994;2023-04-21T06:46:57;100791.91;;;8.70;100.00
48553;BME280;34335;51.566;6.994;2023-04-21T06:49:23;100796.22;;;8.68;100.00
48553;BME280;34335;51.566;6.994;2023-04-21T06:51:48;100800.53;;;8.67;100.00
48553;BME280;34335;51.566;6.994;2023-04-21T06:54:13;100789.50;;;8.93;100.00
48553;BME280;34335;51.566;6.994;2023-04-21T06:56:38;100785.19;;;8.95;100.00
48553;BME280;34335;51.566;6.994;2023-04-21T06:59:05;100786.81;;;8.81;100.00
48553;BME280;34335;51.566;6.994;2023-04-21T07:01:30;100791.16;;;8.86;100.00
48553;BME280;34335;51.566;6.994;2023-04-21T07:03:55;100787.75;;;8.89;100.00
48553;BME280;34335;51.566;6.994;2023-04-21T07:06:21;100788.63;;;8.94;100.00
48553;BME280;34335;51.566;6.994;2023-04-21T07:08:46;100794.00;;;9.20;100.00
48553;BME280;34335;51.566;6.994;2023-04-21T07:11:11;100800.00;;;9.09;100.00
48553;BME280;34335;51.566;6.994;2023-04-21T07:13:37;100799.25;;;9.30;100.00
48553;BME280;34335;51.566;6.994;2023-04-21T07:16:02;100794.88;;;9.18;100.00
48553;BME280;34335;51.566;6.994;2023-04-21T07:18:27;100786.19;;;9.16;100.00
48553;BME280;34335;51.566;6.994;2023-04-21T07:20:52;100792.22;;;9.10;100.00
48553;BME280;34335;51.566;6.994;2023-04-21T07:23:18;100786.31;;;9.36;100.00
48553;BME280;34335;51.566;6.994;2023-04-21T07:25:43;100782.81;;;9.34;100.00
48553;BME280;34335;51.566;6.994;2023-04-21T07:28:09;100785.38;;;9.29;100.00
48553;BME280;34335;51.566;6.994;2023-04-21T07:30:35;100778.56;;;9.45;100.00
48553;BME280;34335;51.566;6.994;2023-04-21T07:33:01;100779.41;;;9.41;100.00
48553;BME280;34335;51.566;6.994;2023-04-21T07:35:26;100770.81;;;9.53;100.00
48553;BME280;34335;51.566;6.994;2023-04-21T07:37:51;100772.56;;;9.60;100.00
48553;BME280;34335;51.566;6.994;2023-04-21T07:40:17;100766.53;;;9.72;100.00
48553;BME280;34335;51.566;6.994;2023-04-21T07:42:42;100772.66;;;9.82;100.00
48553;BME280;34335;51.566;6.994;2023-04-21T07:45:07;100771.72;;;9.67;100.00
48553;BME280;34335;51.566;6.994;2023-04-21T07:47:33;100770.94;;;9.96;100.00
48553;BME280;34335;51.566;6.994;2023-04-21T07:49:58;100779.63;;;9.92;100.00
48553;BME280;34335;51.566;6.994;2023-04-21T07:52:24;100775.28;;;9.90;100.00
48553;BME280;34335;51.566;6.994;2023-04-21T07:54:49;100767.50;;;10.01;100.00
48553;BME280;34335;51.566;6.994;2023-04-21T07:57:15;100764.94;;;10.04;100.00
48553;BME280;34335;51.566;6.994;2023-04-21T07:59:40;100766.69;;;10.14;100.00
48553;BME280;34335;51.566;6.994;2023-04-21T08:02:06;100771.09;;;10.52;100.00
48553;BME280;34335;51.566;6.994;2023-04-21T08:04:32;100781.44;;;10.34;100.00
48553;BME280;34335;51.566;6.994;2023-04-21T08:06:57;100774.50;;;10.34;100.00
48553;BME280;34335;51.566;6.994;2023-04-21T08:09:22;100777.97;;;10.33;100.00
48553;BME280;34335;51.566;6.994;2023-04-21T08:11:48;100769.31;;;10.50;100.00
48553;BME280;34335;51.566;6.994;2023-04-21T08:14:13;100778.00;;;10.46;100.00
48553;BME280;34335;51.566;6.994;2023-04-21T08:16:39;100778.00;;;10.50;100.00
48553;BME280;34335;51.566;6.994;2023-04-21T08:19:06;100768.47;;;10.49;100.00
48553;BME280;34335;51.566;6.994;2023-04-21T08:21:32;100763.28;;;10.58;100.00
48553;BME280;34335;51.566;6.994;2023-04-21T08:23:57;100763.28;;;10.71;100.00
48553;BME280;34335;51.566;6.994;2023-04-21T08:26:23;100765.00;;;10.80;100.00
48553;BME280;34335;51.566;6.994;2023-04-21T08:28:49;100775.41;;;10.75;100.00
48553;BME280;34335;51.566;6.994;2023-04-21T08:31:16;100771.06;;;10.72;100.00
48553;BME280;34335;51.566;6.994;2023-04-21T08:33:42;100776.28;;;10.82;100.00
48553;BME280;34335;51.566;6.994;2023-04-21T08:36:07;100778.84;;;10.91;100.00
48553;BME280;34335;51.566;6.994;2023-04-21T08:38:33;100778.88;;;10.89;100.00
48553;BME280;34335;51.566;6.994;2023-04-21T08:40:59;100780.59;;;11.00;100.00
48553;BME280;34335;51.566;6.994;2023-04-21T08:43:25;100785.78;;;11.14;100.00
48553;BME280;34335;51.566;6.994;2023-04-21T08:45:51;100791.81;;;11.27;100.00
48553;BME280;34335;51.566;6.994;2023-04-21T08:48:20;100793.56;;;11.12;100.00
48553;BME280;34335;51.566;6.994;2023-04-21T08:50:50;100787.50;;;11.19;100.00
48553;BME280;34335;51.566;6.994;2023-04-21T08:53:16;100792.66;;;11.30;100.00
48553;BME280;34335;51.566;6.994;2023-04-21T08:55:42;100793.53;;;11.32;100.00
48553;BME280;34335;51.566;6.994;2023-04-21T08:58:08;100787.47;;;11.33;100.00
48553;BME280;34335;51.566;6.994;2023-04-21T09:00:37;100790.91;;;11.35;100.00
48553;BME280;34335;51.566;6.994;2023-04-21T09:03:03;100793.53;;;11.37;100.00
48553;BME280;34335;51.566;6.994;2023-04-21T09:05:33;100782.19;;;11.46;100.00
48553;BME280;34335;51.566;6.994;2023-04-21T09:08:12;100789.09;;;11.62;100.00
48553;BME280;34335;51.566;6.994;2023-04-21T09:10:43;100782.16;;;11.58;100.00
48553;BME280;34335;51.566;6.994;2023-04-21T09:13:08;100780.41;;;11.63;100.00
48553;BME280;34335;51.566;6.994;2023-04-21T09:15:39;100793.47;;;11.56;100.00
48553;BME280;34335;51.566;6.994;2023-04-21T09:18:10;100785.63;;;11.65;100.00
48553;BME280;34335;51.566;6.994;2023-04-21T09:20:36;100785.59;;;11.73;100.00
48553;BME280;34335;51.566;6.994;2023-04-21T09:23:05;100786.47;;;11.72;100.00
48553;BME280;34335;51.566;6.994;2023-04-21T09:25:32;100783.84;;;11.72;100.00
48553;BME280;34335;51.566;6.994;2023-04-21T09:28:00;100784.66;;;11.81;100.00
48553;BME280;34335;51.566;6.994;2023-04-21T09:30:26;100788.13;;;11.85;100.00
48553;BME280;34335;51.566;6.994;2023-04-21T09:32:55;100781.97;;;11.95;100.00
48553;BME280;34335;51.566;6.994;2023-04-21T09:35:22;100784.59;;;11.97;100.00
48553;BME280;34335;51.566;6.994;2023-04-21T09:37:47;100772.41;;;12.05;100.00
48553;BME280;34335;51.566;6.994;2023-04-21T09:40:13;100771.50;;;12.15;100.00
48553;BME280;34335;51.566;6.994;2023-04-21T09:42:40;100780.16;;;12.18;100.00
48553;BME280;34335;51.566;6.994;2023-04-21T09:45:06;100778.44;;;12.13;100.00
48553;BME280;34335;51.566;6.994;2023-04-21T09:47:38;100773.22;;;12.12;100.00
48553;BME280;34335;51.566;6.994;2023-04-21T09:50:06;100779.28;;;12.19;100.00
48553;BME280;34335;51.566;6.994;2023-04-21T09:52:32;100780.06;;;12.33;100.00
48553;BME280;34335;51.566;6.994;2023-04-21T09:55:00;100772.22;;;12.35;100.00
48553;BME280;34335;51.566;6.994;2023-04-21T09:57:30;100775.72;;;12.35;100.00
48553;BME280;34335;51.566;6.994;2023-04-21T10:00:00;100776.53;;;12.39;100.00
48553;BME280;34335;51.566;6.994;2023-04-21T10:02:29;100781.72;;;12.42;100.00
48553;BME280;34335;51.566;6.994;2023-04-21T10:04:55;100773.91;;;12.40;100.00
48553;BME280;34335;51.566;6.994;2023-04-21T10:07:20;100769.44;;;12.56;100.00
48553;BME280;34335;51.566;6.994;2023-04-21T10:09:57;100766.72;;;12.73;100.00
48553;BME280;34335;51.566;6.994;2023-04-21T10:12:24;100761.56;;;12.62;100.00
48553;BME280;34335;51.566;6.994;2023-04-21T10:14:54;100766.75;;;12.67;100.00
48553;BME280;34335;51.566;6.994;2023-04-21T10:17:26;100758.97;;;12.64;100.00
48553;BME280;34335;51.566;6.994;2023-04-21T10:19:56;100751.09;;;12.67;100.00
48553;BME280;34335;51.566;6.994;2023-04-21T10:22:32;100747.59;;;12.68;100.00
48553;BME280;34335;51.566;6.994;2023-04-21T10:25:00;100743.19;;;12.78;100.00
48553;BME280;34335;51.566;6.994;2023-04-21T10:27:41;100735.31;;;12.83;100.00
48553;BME280;34335;51.566;6.994;2023-04-21T10:30:19;100740.41;;;12.93;100.00
48553;BME280;34335;51.566;6.994;2023-04-21T10:32:46;100741.91;;;13.15;100.00
48553;BME280;34335;51.566;6.994;2023-04-21T10:35:13;100739.31;;;13.13;100.00
48553;BME280;34335;51.566;6.994;2023-04-21T10:37:40;100737.47;;;13.23;100.00
48553;BME280;34335;51.566;6.994;2023-04-21T10:40:07;100730.44;;;13.30;100.00
48553;BME280;34335;51.566;6.994;2023-04-21T10:42:52;100736.28;;;13.52;100.00
48553;BME280;34335;51.566;6.994;2023-04-21T10:45:17;100738.94;;;13.47;100.00
48553;BME280;34335;51.566;6.994;2023-04-21T10:47:45;100739.81;;;13.49;100.00
48553;BME280;34335;51.566;6.994;2023-04-21T10:50:28;100743.19;;;13.58;100.00
48553;BME280;34335;51.566;6.994;2023-04-21T10:53:15;100744.19;;;13.47;100.00
48553;BME280;34335;51.566;6.994;2023-04-21T10:55:40;100732.03;;;13.45;100.00
48553;BME280;34335;51.566;6.994;2023-04-21T10:58:07;100728.63;;;13.39;100.00
48553;BME280;34335;51.566;6.994;2023-04-21T11:00:36;100729.47;;;13.42;100.00
48553;BME280;34335;51.566;6.994;2023-04-21T11:03:06;100725.81;;;13.55;100.00
48553;BME280;34335;51.566;6.994;2023-04-21T11:05:39;100725.84;;;13.53;100.00
48553;BME280;34335;51.566;6.994;2023-04-21T11:08:10;100713.47;;;13.66;100.00
48553;BME280;34335;51.566;6.994;2023-04-21T11:10:48;100721.56;;;13.45;100.00
48553;BME280;34335;51.566;6.994;2023-04-21T11:13:14;100721.41;;;13.59;100.00
48553;BME280;34335;51.566;6.994;2023-04-21T11:15:39;100704.72;;;13.70;100.00
48553;BME280;34335;51.566;6.994;2023-04-21T11:18:05;100708.25;;;13.66;100.00
48553;BME280;34335;51.566;6.994;2023-04-21T11:20:32;100710.22;;;13.49;100.00
48553;BME280;34335;51.566;6.994;2023-04-21T11:22:58;100707.41;;;13.63;100.00
48553;BME280;34335;51.566;6.994;2023-04-21T11:25:23;100702.78;;;13.83;100.00
48553;BME280;34335;51.566;6.994;2023-04-21T11:27:52;100708.63;;;13.99;100.00
48553;BME280;34335;51.566;6.994;2023-04-21T11:30:19;100695.31;;;14.15;100.00
48553;BME280;34335;51.566;6.994;2023-04-21T11:32:44;100694.22;;;14.28;100.00
48553;BME280;34335;51.566;6.994;2023-04-21T11:35:10;100685.16;;;14.48;100.00
48553;BME280;34335;51.566;6.994;2023-04-21T11:37:35;100683.94;;;14.71;100.00
48553;BME280;34335;51.566;6.994;2023-04-21T11:40:01;100674.84;;;14.90;100.00
48553;BME280;34335;51.566;6.994;2023-04-21T11:42:29;100663.47;;;14.91;100.00
48553;BME280;34335;51.566;6.994;2023-04-21T11:44:55;100659.03;;;14.95;100.00
48553;BME280;34335;51.566;6.994;2023-04-21T11:47:23;100660.50;;;15.10;100.00
48553;BME280;34335;51.566;6.994;2023-04-21T11:49:54;100660.72;;;14.98;100.00
48553;BME280;34335;51.566;6.994;2023-04-21T11:52:25;100661.22;;;15.17;100.00
48553;BME280;34335;51.566;6.994;2023-04-21T11:55:00;100650.31;;;15.38;100.00
48553;BME280;34335;51.566;6.994;2023-04-21T11:57:26;100651.91;;;15.44;100.00
48553;BME280;34335;51.566;6.994;2023-04-21T11:59:52;100647.44;;;15.49;100.00
48553;BME280;34335;51.566;6.994;2023-04-21T12:02:24;100644.13;;;15.79;100.00
48553;BME280;34335;51.566;6.994;2023-04-21T12:04:57;100647.28;;;15.95;100.00
48553;BME280;34335;51.566;6.994;2023-04-21T12:07:22;100652.69;;;15.88;100.00
48553;BME280;34335;51.566;6.994;2023-04-21T12:09:51;100645.53;;;15.95;100.00
48553;BME280;34335;51.566;6.994;2023-04-21T12:12:17;100636.13;;;15.86;100.00
48553;BME280;34335;51.566;6.994;2023-04-21T12:14:43;100629.75;;;15.97;100.00
48553;BME280;34335;51.566;6.994;2023-04-21T12:17:09;100636.84;;;15.93;100.00
48553;BME280;34335;51.566;6.994;2023-04-21T12:19:39;100636.31;;;15.77;100.00
48553;BME280;34335;51.566;6.994;2023-04-21T12:22:10;100639.00;;;15.74;100.00
48553;BME280;34335;51.566;6.994;2023-04-21T12:24:35;100636.00;;;15.91;100.00
48553;BME280;34335;51.566;6.994;2023-04-21T12:27:01;100633.88;;;16.07;100.00
48553;BME280;34335;51.566;6.994;2023-04-21T12:29:27;100637.69;;;15.94;100.00
48553;BME280;34335;51.566;6.994;2023-04-21T12:31:52;100622.97;;;15.88;100.00
48553;BME280;34335;51.566;6.994;2023-04-21T12:34:18;100624.69;;;15.91;100.00
48553;BME280;34335;51.566;6.994;2023-04-21T12:36:43;100614.28;;;15.86;100.00
48553;BME280;34335;51.566;6.994;2023-04-21T12:39:08;100603.59;;;15.95;100.00
48553;BME280;34335;51.566;6.994;2023-04-21T12:41:34;100590.31;;;16.01;100.00